sensor_id;sensor_type;location;lat;lon;timestamp;pressure;altitude;pressure_sealevel;temperature;humidity
6144;BME280;3103;49.492;8.474;2023-03-01T00:01:03;101543.22;;;3.04;51.76
6144;BME280;3103;49.492;8.474;2023-03-01T00:03:30;101542.06;;;2.98;51.14
6144;BME280;3103;49.492;8.474;2023-03-01T00:05:58;101539.41;;;3.06;51.41
6144;BME280;3103;49.492;8.474;2023-03-01T00:08:25;101541.56;;;3.03;51.42
6144;BME280;3103;49.492;8.474;2023-03-01T00:11:04;101534.41;;;2.95;51.49
6144;BME280;3103;49.492;8.474;2023-03-01T00:13:31;101531.28;;;3.00;51.79
6144;BME280;3103;49.492;8.474;2023-03-01T00:15:58;101534.75;;;3.08;52.11
6144;BME280;3103;49.492;8.474;2023-03-01T00:18:24;101532.13;;;3.00;51.44
6144;BME280;3103;49.492;8.474;2023-03-01T00:20:52;101536.22;;;2.94;51.89
6144;BME280;3103;49.492;8.474;2023-03-01T00:23:20;101542.25;;;2.96;51.63
6144;BME280;3103;49.492;8.474;2023-03-01T00:25:47;101539.59;;;2.96;51.68
6144;BME280;3103;49.492;8.474;2023-03-01T00:28:13;101546.19;;;2.92;51.87
6144;BME280;3103;49.492;8.474;2023-03-01T00:30:40;101542.38;;;2.95;52.59
6144;BME280;3103;49.492;8.474;2023-03-01T00:33:07;101533.75;;;2.93;53.31
6144;BME280;3103;49.492;8.474;2023-03-01T00:35:35;101541.69;;;2.85;52.84
6144;BME280;3103;49.492;8.474;2023-03-01T00:38:02;101544.00;;;2.80;52.93
6144;BME280;3103;49.492;8.474;2023-03-01T00:40:32;101544.53;;;2.83;53.41
6144;BME280;3103;49.492;8.474;2023-03-01T00:43:00;101542.50;;;2.77;53.85
6144;BME280;3103;49.492;8.474;2023-03-01T00:45:27;101545.81;;;2.71;53.42
6144;BME280;3103;49.492;8.474;2023-03-01T00:47:54;101553.41;;;2.66;53.44
6144;BME280;3103;49.492;8.474;2023-03-01T00:50:21;101550.78;;;2.74;54.19
6144;BME280;3103;49.492;8.474;2023-03-01T00:52:52;101551.72;;;2.57;53.58
6144;BME280;3103;49.492;8.474;2023-03-01T00:55:19;101548.78;;;2.68;53.32
6144;BME280;3103;49.492;8.474;2023-03-01T00:57:46;101548.09;;;2.66;52.94
6144;BME280;3103;49.492;8.474;2023-03-01T01:00:13;101544.31;;;2.68;53.53
6144;BME280;3103;49.492;8.474;2023-03-01T01:02:40;101538.19;;;2.76;53.36
6144;BME280;3103;49.492;8.474;2023-03-01T01:05:07;101535.34;;;2.70;53.38
6144;BME280;3103;49.492;8.474;2023-03-01T01:07:34;101523.53;;;2.64;53.30
6144;BME280;3103;49.492;8.474;2023-03-01T01:10:01;101523.84;;;2.53;54.07
6144;BME280;3103;49.492;8.474;2023-03-01T01:12:28;101526.63;;;2.43;54.35
6144;BME280;3103;49.492;8.474;2023-03-01T01:14:55;101517.56;;;2.54;54.46
6144;BME280;3103;49.492;8.474;2023-03-01T01:17:22;101525.53;;;2.62;53.47
6144;BME280;3103;49.492;8.474;2023-03-01T01:19:48;101515.91;;;2.61;53.92
6144;BME280;3103;49.492;8.474;2023-03-01T01:22:15;101510.28;;;2.56;53.99
6144;BME280;3103;49.492;8.474;2023-03-01T01:24:42;101509.06;;;2.50;53.57
6144;BME280;3103;49.492;8.474;2023-03-01T01:27:09;101512.59;;;2.59;53.86
6144;BME280;3103;49.492;8.474;2023-03-01T01:29:36;101514.59;;;2.65;53.68
6144;BME280;3103;49.492;8.474;2023-03-01T01:32:03;101514.09;;;2.61;53.55
6144;BME280;3103;49.492;8.474;2023-03-01T01:34:30;101501.47;;;2.55;53.72
6144;BME280;3103;49.492;8.474;2023-03-01T01:36:56;101502.22;;;2.31;54.99
6144;BME280;3103;49.492;8.474;2023-03-01T01:39:23;101494.66;;;2.45;55.00
6144;BME280;3103;49.492;8.474;2023-03-01T01:41:50;101487.69;;;2.44;54.69
6144;BME280;3103;49.492;8.474;2023-03-01T01:44:28;101473.97;;;2.56;54.05
6144;BME280;3103;49.492;8.474;2023-03-01T01:47:05;101469.28;;;2.50;54.20
6144;BME280;3103;49.492;8.474;2023-03-01T01:49:41;101475.44;;;2.67;54.47
6144;BME280;3103;49.492;8.474;2023-03-01T01:52:13;101470.69;;;2.71;54.31
6144;BME280;3103;49.492;8.474;2023-03-01T01:54:45;101466.34;;;2.78;53.93
6144;BME280;3103;49.492;8.474;2023-03-01T01:57:19;101475.16;;;2.70;54.08
6144;BME280;3103;49.492;8.474;2023-03-01T01:59:52;101463.25;;;2.82;54.00
6144;BME280;3103;49.492;8.474;2023-03-01T02:02:22;101457.22;;;2.80;53.71
6144;BME280;3103;49.492;8.474;2023-03-01T02:04:53;101465.53;;;2.69;54.03
6144;BME280;3103;49.492;8.474;2023-03-01T02:07:23;101458.22;;;2.71;54.33
6144;BME280;3103;49.492;8.474;2023-03-01T02:09:51;101454.41;;;2.74;53.75
6144;BME280;3103;49.492;8.474;2023-03-01T02:12:21;101460.69;;;2.64;54.69
6144;BME280;3103;49.492;8.474;2023-03-01T02:14:49;101444.09;;;2.54;54.96
6144;BME280;3103;49.492;8.474;2023-03-01T02:17:17;101452.06;;;2.62;54.53
6144;BME280;3103;49.492;8.474;2023-03-01T02:22:29;101447.22;;;2.42;55.26
6144;BME280;3103;49.492;8.474;2023-03-01T02:25:12;101451.34;;;2.36;55.10
6144;BME280;3103;49.492;8.474;2023-03-01T02:30:34;101440.22;;;2.32;55.39
6144;BME280;3103;49.492;8.474;2023-03-01T02:33:03;101434.16;;;2.56;55.02
6144;BME280;3103;49.492;8.474;2023-03-01T02:35:34;101444.56;;;2.50;55.62
6144;BME280;3103;49.492;8.474;2023-03-01T02:38:02;101438.06;;;2.36;56.17
6144;BME280;3103;49.492;8.474;2023-03-01T02:40:30;101431.81;;;2.53;55.63
6144;BME280;3103;49.492;8.474;2023-03-01T02:42:58;101432.66;;;2.54;56.28
6144;BME280;3103;49.492;8.474;2023-03-01T02:45:27;101426.69;;;2.60;56.70
6144;BME280;3103;49.492;8.474;2023-03-01T02:47:54;101428.81;;;2.48;56.71
6144;BME280;3103;49.492;8.474;2023-03-01T02:50:24;101425.63;;;2.36;56.58
6144;BME280;3103;49.492;8.474;2023-03-01T02:53:06;101423.97;;;2.27;56.25
6144;BME280;3103;49.492;8.474;2023-03-01T02:55:35;101411.53;;;2.28;57.20
6144;BME280;3103;49.492;8.474;2023-03-01T02:58:03;101407.75;;;2.30;56.06
6144;BME280;3103;49.492;8.474;2023-03-01T03:00:36;101401.03;;;2.10;56.63
6144;BME280;3103;49.492;8.474;2023-03-01T03:03:07;101405.25;;;2.29;56.03
6144;BME280;3103;49.492;8.474;2023-03-01T03:05:34;101395.81;;;2.34;55.44
6144;BME280;3103;49.492;8.474;2023-03-01T03:08:02;101394.19;;;2.42;55.80
6144;BME280;3103;49.492;8.474;2023-03-01T03:10:36;101392.31;;;2.34;56.26
6144;BME280;3103;49.492;8.474;2023-03-01T03:13:06;101389.50;;;2.27;56.20
6144;BME280;3103;49.492;8.474;2023-03-01T03:15:34;101384.03;;;2.29;56.63
6144;BME280;3103;49.492;8.474;2023-03-01T03:18:05;101384.19;;;2.27;56.25
6144;BME280;3103;49.492;8.474;2023-03-01T03:20:32;101386.97;;;2.18;56.05
6144;BME280;3103;49.492;8.474;2023-03-01T03:22:59;101396.25;;;2.14;56.05
6144;BME280;3103;49.492;8.474;2023-03-01T03:25:27;101387.78;;;2.10;56.95
6144;BME280;3103;49.492;8.474;2023-03-01T03:27:56;101378.81;;;2.03;56.80
6144;BME280;3103;49.492;8.474;2023-03-01T03:30:26;101378.31;;;1.99;56.84
6144;BME280;3103;49.492;8.474;2023-03-01T03:32:55;101375.00;;;1.97;56.77
6144;BME280;3103;49.492;8.474;2023-03-01T03:35:30;101375.44;;;1.85;57.54
6144;BME280;3103;49.492;8.474;2023-03-01T03:37:59;101383.41;;;1.85;57.97
6144;BME280;3103;49.492;8.474;2023-03-01T03:40:34;101369.78;;;1.79;58.21
6144;BME280;3103;49.492;8.474;2023-03-01T03:43:03;101373.91;;;1.82;58.32
6144;BME280;3103;49.492;8.474;2023-03-01T03:45:30;101375.06;;;1.71;59.07
6144;BME280;3103;49.492;8.474;2023-03-01T03:48:00;101375.13;;;1.88;59.28
6144;BME280;3103;49.492;8.474;2023-03-01T03:50:27;101370.09;;;1.76;58.54
6144;BME280;3103;49.492;8.474;2023-03-01T03:52:54;101379.31;;;1.64;58.91
6144;BME280;3103;49.492;8.474;2023-03-01T03:55:21;101369.59;;;1.73;58.78
6144;BME280;3103;49.492;8.474;2023-03-01T03:57:48;101372.09;;;1.83;58.33
6144;BME280;3103;49.492;8.474;2023-03-01T04:00:21;101366.47;;;1.77;58.40
6144;BME280;3103;49.492;8.474;2023-03-01T04:02:50;101356.53;;;1.79;58.55
6144;BME280;3103;49.492;8.474;2023-03-01T04:05:18;101363.47;;;1.72;58.48
6144;BME280;3103;49.492;8.474;2023-03-01T04:07:45;101357.78;;;1.67;58.76
6144;BME280;3103;49.492;8.474;2023-03-01T04:10:15;101350.44;;;1.53;58.86
6144;BME280;3103;49.492;8.474;2023-03-01T04:12:43;101355.78;;;1.61;58.78
6144;BME280;3103;49.492;8.474;2023-03-01T04:15:11;101353.38;;;1.76;58.41
6144;BME280;3103;49.492;8.474;2023-03-01T04:17:46;101361.81;;;1.71;58.63
6144;BME280;3103;49.492;8.474;2023-03-01T04:20:16;101352.44;;;1.85;57.92
6144;BME280;3103;49.492;8.474;2023-03-01T04:23:06;101357.44;;;1.62;58.52
6144;BME280;3103;49.492;8.474;2023-03-01T04:25:46;101357.56;;;1.53;59.38
6144;BME280;3103;49.492;8.474;2023-03-01T04:28:15;101368.81;;;1.89;57.96
6144;BME280;3103;49.492;8.474;2023-03-01T04:30:43;101369.50;;;1.91;57.60
6144;BME280;3103;49.492;8.474;2023-03-01T04:33:10;101356.44;;;1.97;57.49
6144;BME280;3103;49.492;8.474;2023-03-01T04:35:37;101355.38;;;1.82;57.34
6144;BME280;3103;49.492;8.474;2023-03-01T04:38:06;101361.72;;;1.89;57.64
6144;BME280;3103;49.492;8.474;2023-03-01T04:40:33;101358.22;;;1.97;57.46
6144;BME280;3103;49.492;8.474;2023-03-01T04:43:00;101360.38;;;1.93;57.63
6144;BME280;3103;49.492;8.474;2023-03-01T04:45:26;101367.88;;;1.98;57.72
6144;BME280;3103;49.492;8.474;2023-03-01T04:47:54;101365.56;;;2.03;56.87
6144;BME280;3103;49.492;8.474;2023-03-01T04:50:20;101368.06;;;2.04;56.72
6144;BME280;3103;49.492;8.474;2023-03-01T04:52:48;101363.09;;;2.09;57.46
6144;BME280;3103;49.492;8.474;2023-03-01T04:55:14;101363.91;;;2.02;57.08
6144;BME280;3103;49.492;8.474;2023-03-01T04:57:41;101368.06;;;2.04;57.18
6144;BME280;3103;49.492;8.474;2023-03-01T05:00:11;101365.06;;;1.99;57.01
6144;BME280;3103;49.492;8.474;2023-03-01T05:02:57;101364.72;;;2.02;57.09
6144;BME280;3103;49.492;8.474;2023-03-01T05:05:27;101359.25;;;2.04;56.89
6144;BME280;3103;49.492;8.474;2023-03-01T05:08:00;101350.16;;;1.98;57.43
6144;BME280;3103;49.492;8.474;2023-03-01T05:10:29;101349.66;;;2.03;57.15
6144;BME280;3103;49.492;8.474;2023-03-01T05:12:58;101350.97;;;2.07;57.23
6144;BME280;3103;49.492;8.474;2023-03-01T05:15:30;101353.47;;;2.08;57.53
6144;BME280;3103;49.492;8.474;2023-03-01T05:17:59;101352.84;;;2.15;56.92
6144;BME280;3103;49.492;8.474;2023-03-01T05:20:27;101351.81;;;2.07;57.09
6144;BME280;3103;49.492;8.474;2023-03-01T05:22:57;101347.19;;;2.09;57.34
6144;BME280;3103;49.492;8.474;2023-03-01T05:25:25;101350.66;;;2.10;57.64
6144;BME280;3103;49.492;8.474;2023-03-01T05:27:52;101354.78;;;2.04;57.69
6144;BME280;3103;49.492;8.474;2023-03-01T05:30:19;101356.91;;;1.93;57.69
6144;BME280;3103;49.492;8.474;2023-03-01T05:32:49;101354.63;;;1.98;57.31
6144;BME280;3103;49.492;8.474;2023-03-01T05:35:17;101356.75;;;1.94;57.35
6144;BME280;3103;49.492;8.474;2023-03-01T05:37:46;101350.47;;;2.03;57.27
6144;BME280;3103;49.492;8.474;2023-03-01T05:40:19;101355.63;;;2.05;57.25
6144;BME280;3103;49.492;8.474;2023-03-01T05:42:52;101356.13;;;2.08;57.41
6144;BME280;3103;49.492;8.474;2023-03-01T05:45:21;101350.34;;;2.13;56.89
6144;BME280;3103;49.492;8.474;2023-03-01T05:47:49;101356.31;;;2.15;57.34
6144;BME280;3103;49.492;8.474;2023-03-01T05:50:23;101357.66;;;2.19;57.09
6144;BME280;3103;49.492;8.474;2023-03-01T05:53:12;101345.38;;;2.18;56.56
6144;BME280;3103;49.492;8.474;2023-03-01T05:55:40;101357.28;;;1.98;56.79
6144;BME280;3103;49.492;8.474;2023-03-01T05:58:11;101353.19;;;2.12;57.08
6144;BME280;3103;49.492;8.474;2023-03-01T06:00:40;101350.22;;;2.31;56.31
6144;BME280;3103;49.492;8.474;2023-03-01T06:03:10;101347.38;;;2.24;56.50
6144;BME280;3103;49.492;8.474;2023-03-01T06:05:37;101351.84;;;2.24;57.16
6144;BME280;3103;49.492;8.474;2023-03-01T06:08:07;101347.06;;;2.27;56.34
6144;BME280;3103;49.492;8.474;2023-03-01T06:10:35;101347.25;;;2.34;55.77
6144;BME280;3103;49.492;8.474;2023-03-01T06:13:02;101355.34;;;2.32;56.52
6144;BME280;3103;49.492;8.474;2023-03-01T06:15:29;101351.06;;;2.31;56.34
6144;BME280;3103;49.492;8.474;2023-03-01T06:17:56;101353.00;;;2.21;56.36
6144;BME280;3103;49.492;8.474;2023-03-01T06:20:27;101357.44;;;2.04;56.50
6144;BME280;3103;49.492;8.474;2023-03-01T06:22:53;101357.50;;;2.37;56.11
6144;BME280;3103;49.492;8.474;2023-03-01T06:25:23;101351.22;;;2.46;55.43
6144;BME280;3103;49.492;8.474;2023-03-01T06:27:50;101356.38;;;2.40;55.55
6144;BME280;3103;49.492;8.474;2023-03-01T06:30:20;101354.03;;;2.36;56.02
6144;BME280;3103;49.492;8.474;2023-03-01T06:32:49;101356.69;;;2.53;55.97
6144;BME280;3103;49.492;8.474;2023-03-01T06:35:17;101350.75;;;2.67;54.93
6144;BME280;3103;49.492;8.474;2023-03-01T06:37:45;101343.13;;;2.64;54.88
6144;BME280;3103;49.492;8.474;2023-03-01T06:40:13;101352.06;;;2.47;54.86
6144;BME280;3103;49.492;8.474;2023-03-01T06:42:41;101351.41;;;2.77;54.21
6144;BME280;3103;49.492;8.474;2023-03-01T06:45:08;101355.06;;;2.76;54.17
6144;BME280;3103;49.492;8.474;2023-03-01T06:47:35;101346.44;;;2.74;54.01
6144;BME280;3103;49.492;8.474;2023-03-01T06:50:03;101341.16;;;2.82;54.27
6144;BME280;3103;49.492;8.474;2023-03-01T06:52:30;101343.94;;;2.64;54.62
6144;BME280;3103;49.492;8.474;2023-03-01T06:54:57;101340.63;;;2.62;54.31
6144;BME280;3103;49.492;8.474;2023-03-01T06:57:23;101342.59;;;2.93;54.67
6144;BME280;3103;49.492;8.474;2023-03-01T06:59:50;101337.81;;;2.96;53.69
6144;BME280;3103;49.492;8.474;2023-03-01T07:02:17;101351.19;;;3.19;53.00
6144;BME280;3103;49.492;8.474;2023-03-01T07:04:43;101351.53;;;3.24;53.40
6144;BME280;3103;49.492;8.474;2023-03-01T07:07:10;101346.59;;;3.13;53.24
6144;BME280;3103;49.492;8.474;2023-03-01T07:09:37;101346.03;;;3.34;53.29
6144;BME280;3103;49.492;8.474;2023-03-01T07:12:04;101345.66;;;3.45;52.15
6144;BME280;3103;49.492;8.474;2023-03-01T07:14:31;101349.44;;;3.59;52.54
6144;BME280;3103;49.492;8.474;2023-03-01T07:16:57;101342.38;;;3.35;51.80
6144;BME280;3103;49.492;8.474;2023-03-01T07:19:24;101343.31;;;3.50;51.60
6144;BME280;3103;49.492;8.474;2023-03-01T07:21:51;101342.16;;;3.53;51.82
6144;BME280;3103;49.492;8.474;2023-03-01T07:24:17;101335.44;;;3.73;51.21
6144;BME280;3103;49.492;8.474;2023-03-01T07:26:48;101330.41;;;3.78;50.81
6144;BME280;3103;49.492;8.474;2023-03-01T07:29:15;101340.28;;;3.70;51.16
6144;BME280;3103;49.492;8.474;2023-03-01T07:31:42;101326.63;;;3.81;50.67
6144;BME280;3103;49.492;8.474;2023-03-01T07:34:09;101324.06;;;3.87;50.53
6144;BME280;3103;49.492;8.474;2023-03-01T07:36:37;101338.00;;;3.98;50.66
6144;BME280;3103;49.492;8.474;2023-03-01T07:39:06;101325.53;;;3.98;50.32
6144;BME280;3103;49.492;8.474;2023-03-01T07:41:33;101322.97;;;4.05;50.82
6144;BME280;3103;49.492;8.474;2023-03-01T07:43:59;101318.91;;;4.17;49.72
6144;BME280;3103;49.492;8.474;2023-03-01T07:46:26;101312.16;;;4.37;49.65
6144;BME280;3103;49.492;8.474;2023-03-01T07:48:53;101321.88;;;4.45;49.01
6144;BME280;3103;49.492;8.474;2023-03-01T07:51:20;101325.97;;;4.56;49.07
6144;BME280;3103;49.492;8.474;2023-03-01T07:53:48;101326.03;;;4.47;48.98
6144;BME280;3103;49.492;8.474;2023-03-01T07:56:16;101326.91;;;4.63;48.90
6144;BME280;3103;49.492;8.474;2023-03-01T07:58:45;101320.50;;;4.72;47.92
6144;BME280;3103;49.492;8.474;2023-03-01T08:01:18;101311.06;;;4.69;48.42
6144;BME280;3103;49.492;8.474;2023-03-01T08:03:45;101318.16;;;4.92;47.66
6144;BME280;3103;49.492;8.474;2023-03-01T08:06:14;101312.03;;;5.06;46.98
6144;BME280;3103;49.492;8.474;2023-03-01T08:08:42;101311.56;;;5.02;46.66
6144;BME280;3103;49.492;8.474;2023-03-01T08:11:14;101307.63;;;4.98;46.86
6144;BME280;3103;49.492;8.474;2023-03-01T08:13:42;101305.41;;;5.02;46.68
6144;BME280;3103;49.492;8.474;2023-03-01T08:16:14;101298.63;;;5.29;46.23
6144;BME280;3103;49.492;8.474;2023-03-01T08:18:42;101300.94;;;5.47;45.50
6144;BME280;3103;49.492;8.474;2023-03-01T08:21:11;101298.06;;;5.63;45.38
6144;BME280;3103;49.492;8.474;2023-03-01T08:23:38;101298.44;;;5.60;45.08
6144;BME280;3103;49.492;8.474;2023-03-01T08:26:07;101292.13;;;5.31;45.60
6144;BME280;3103;49.492;8.474;2023-03-01T08:28:35;101289.75;;;5.22;45.68
6144;BME280;3103;49.492;8.474;2023-03-01T08:31:02;101285.97;;;5.16;46.11
6144;BME280;3103;49.492;8.474;2023-03-01T08:33:29;101285.97;;;5.16;46.32
6144;BME280;3103;49.492;8.474;2023-03-01T08:36:05;101292.41;;;5.22;45.55
6144;BME280;3103;49.492;8.474;2023-03-01T08:38:34;101289.44;;;5.46;46.13
6144;BME280;3103;49.492;8.474;2023-03-01T08:41:03;101292.09;;;5.46;45.87
6144;BME280;3103;49.492;8.474;2023-03-01T08:43:30;101291.47;;;5.44;45.11
6144;BME280;3103;49.492;8.474;2023-03-01T08:45:56;101280.72;;;5.52;45.25
6144;BME280;3103;49.492;8.474;2023-03-01T08:48:23;101283.47;;;5.44;45.06
6144;BME280;3103;49.492;8.474;2023-03-01T08:50:50;101281.81;;;5.58;45.66
6144;BME280;3103;49.492;8.474;2023-03-01T08:53:17;101286.22;;;5.65;44.74
6144;BME280;3103;49.492;8.474;2023-03-01T08:55:44;101274.81;;;5.57;44.51
6144;BME280;3103;49.492;8.474;2023-03-01T08:58:10;101275.44;;;5.74;44.04
6144;BME280;3103;49.492;8.474;2023-03-01T09:00:37;101263.19;;;5.94;44.49
6144;BME280;3103;49.492;8.474;2023-03-01T09:03:04;101263.16;;;6.09;44.46
6144;BME280;3103;49.492;8.474;2023-03-01T09:05:32;101267.16;;;6.19;43.54
6144;BME280;3103;49.492;8.474;2023-03-01T09:07:59;101265.69;;;6.38;43.03
6144;BME280;3103;49.492;8.474;2023-03-01T09:10:26;101270.75;;;6.33;43.13
6144;BME280;3103;49.492;8.474;2023-03-01T09:12:52;101267.84;;;6.49;42.75
6144;BME280;3103;49.492;8.474;2023-03-01T09:15:19;101258.47;;;6.60;42.09
6144;BME280;3103;49.492;8.474;2023-03-01T09:17:46;101250.72;;;6.93;42.03
6144;BME280;3103;49.492;8.474;2023-03-01T09:20:13;101244.38;;;7.90;39.79
6144;BME280;3103;49.492;8.474;2023-03-01T09:22:40;101256.56;;;9.18;37.52
6144;BME280;3103;49.492;8.474;2023-03-01T09:25:06;101250.28;;;10.27;34.71
6144;BME280;3103;49.492;8.474;2023-03-01T09:27:33;101255.38;;;11.28;33.74
6144;BME280;3103;49.492;8.474;2023-03-01T09:30:00;101247.03;;;10.93;33.95
6144;BME280;3103;49.492;8.474;2023-03-01T09:32:30;101250.41;;;10.38;34.35
6144;BME280;3103;49.492;8.474;2023-03-01T09:34:57;101257.53;;;11.56;32.23
6144;BME280;3103;49.492;8.474;2023-03-01T09:37:34;101256.72;;;12.92;29.80
6144;BME280;3103;49.492;8.474;2023-03-01T09:40:06;101247.22;;;12.01;32.28
6144;BME280;3103;49.492;8.474;2023-03-01T09:42:34;101251.63;;;11.29;32.27
6144;BME280;3103;49.492;8.474;2023-03-01T09:45:11;101259.03;;;9.71;34.34
6144;BME280;3103;49.492;8.474;2023-03-01T09:47:41;101249.78;;;8.96;35.88
6144;BME280;3103;49.492;8.474;2023-03-01T09:50:16;101244.25;;;8.64;36.79
6144;BME280;3103;49.492;8.474;2023-03-01T09:52:52;101239.06;;;8.03;37.88
6144;BME280;3103;49.492;8.474;2023-03-01T09:56:13;101237.22;;;8.17;38.52
6144;BME280;3103;49.492;8.474;2023-03-01T09:58:29;101248.28;;;7.94;39.31
6144;BME280;3103;49.492;8.474;2023-03-01T10:01:04;101236.16;;;8.04;38.88
6144;BME280;3103;49.492;8.474;2023-03-01T10:03:43;101244.34;;;7.83;39.21
6144;BME280;3103;49.492;8.474;2023-03-01T10:06:19;101233.03;;;7.88;39.11
6144;BME280;3103;49.492;8.474;2023-03-01T10:09:03;101231.97;;;7.76;39.30
6144;BME280;3103;49.492;8.474;2023-03-01T10:11:37;101215.13;;;7.82;39.76
6144;BME280;3103;49.492;8.474;2023-03-01T10:19:42;101215.06;;;7.62;39.72
6144;BME280;3103;49.492;8.474;2023-03-01T10:22:13;101214.81;;;7.50;39.01
6144;BME280;3103;49.492;8.474;2023-03-01T10:24:41;101213.47;;;7.81;40.42
6144;BME280;3103;49.492;8.474;2023-03-01T10:27:19;101214.72;;;7.91;39.51
6144;BME280;3103;49.492;8.474;2023-03-01T10:30:16;101213.47;;;7.81;39.39
6144;BME280;3103;49.492;8.474;2023-03-01T10:32:46;101213.22;;;7.62;39.62
6144;BME280;3103;49.492;8.474;2023-03-01T10:35:21;101198.06;;;7.89;39.05
6144;BME280;3103;49.492;8.474;2023-03-01T10:38:11;101186.31;;;7.90;39.53
6144;BME280;3103;49.492;8.474;2023-03-01T10:40:54;101187.94;;;7.85;39.05
6144;BME280;3103;49.492;8.474;2023-03-01T10:43:21;101187.13;;;7.84;39.52
6144;BME280;3103;49.492;8.474;2023-03-01T10:45:48;101179.72;;;7.80;39.61
6144;BME280;3103;49.492;8.474;2023-03-01T10:51:05;101173.94;;;7.69;39.21
6144;BME280;3103;49.492;8.474;2023-03-01T10:53:35;101170.91;;;8.06;38.68
6144;BME280;3103;49.492;8.474;2023-03-01T10:56:06;101176.03;;;8.27;39.23
6144;BME280;3103;49.492;8.474;2023-03-01T10:58:35;101170.31;;;8.37;38.17
6144;BME280;3103;49.492;8.474;2023-03-01T11:01:05;101170.69;;;8.33;38.87
6144;BME280;3103;49.492;8.474;2023-03-01T11:03:35;101162.88;;;8.32;39.71
6144;BME280;3103;49.492;8.474;2023-03-01T11:11:21;101153.59;;;8.54;38.30
6144;BME280;3103;49.492;8.474;2023-03-01T11:13:55;101147.63;;;8.66;37.81
6144;BME280;3103;49.492;8.474;2023-03-01T11:16:29;101140.59;;;8.71;39.06
6144;BME280;3103;49.492;8.474;2023-03-01T11:19:19;101134.22;;;8.66;37.96
6144;BME280;3103;49.492;8.474;2023-03-01T11:24:19;101133.72;;;9.02;37.00
6144;BME280;3103;49.492;8.474;2023-03-01T11:26:52;101129.78;;;8.98;36.56
6144;BME280;3103;49.492;8.474;2023-03-01T11:31:53;101110.84;;;8.92;37.19
6144;BME280;3103;49.492;8.474;2023-03-01T11:34:32;101104.56;;;8.60;37.47
6144;BME280;3103;49.492;8.474;2023-03-01T11:37:04;101102.13;;;8.26;38.31
6144;BME280;3103;49.492;8.474;2023-03-01T11:43:04;101103.97;;;8.52;38.05
6144;BME280;3103;49.492;8.474;2023-03-01T11:48:38;101092.25;;;8.40;38.92
6144;BME280;3103;49.492;8.474;2023-03-01T11:54:20;101091.63;;;8.24;38.57
6144;BME280;3103;49.492;8.474;2023-03-01T11:56:57;101074.72;;;8.24;40.34
6144;BME280;3103;49.492;8.474;2023-03-01T11:59:43;101078.03;;;8.26;39.76
6144;BME280;3103;49.492;8.474;2023-03-01T12:08:01;101062.53;;;8.54;39.38
6144;BME280;3103;49.492;8.474;2023-03-01T12:16:22;101051.84;;;8.28;39.22
6144;BME280;3103;49.492;8.474;2023-03-01T12:19:21;101036.66;;;8.15;38.67
6144;BME280;3103;49.492;8.474;2023-03-01T12:30:22;101025.94;;;8.22;39.73
6144;BME280;3103;49.492;8.474;2023-03-01T12:33:04;101018.34;;;8.19;40.96
6144;BME280;3103;49.492;8.474;2023-03-01T12:38:17;101004.94;;;8.12;39.75
6144;BME280;3103;49.492;8.474;2023-03-01T12:43:58;100993.44;;;8.05;39.22
6144;BME280;3103;49.492;8.474;2023-03-01T12:49:34;100995.63;;;8.28;40.67
6144;BME280;3103;49.492;8.474;2023-03-01T12:52:22;100979.59;;;8.21;39.87
6144;BME280;3103;49.492;8.474;2023-03-01T12:54:54;100980.81;;;8.32;40.56
6144;BME280;3103;49.492;8.474;2023-03-01T12:57:40;100960.25;;;8.19;40.61
6144;BME280;3103;49.492;8.474;2023-03-01T13:00:27;100948.50;;;8.27;41.00
6144;BME280;3103;49.492;8.474;2023-03-01T13:03:10;100957.78;;;8.24;40.27
6144;BME280;3103;49.492;8.474;2023-03-01T13:08:55;100958.63;;;8.18;40.22
6144;BME280;3103;49.492;8.474;2023-03-01T13:11:21;100951.88;;;7.96;39.68
6144;BME280;3103;49.492;8.474;2023-03-01T13:13:49;100954.75;;;8.08;40.01
6144;BME280;3103;49.492;8.474;2023-03-01T13:19:25;100951.59;;;8.24;40.67
6144;BME280;3103;49.492;8.474;2023-03-01T13:21:53;100949.97;;;8.16;39.18
6144;BME280;3103;49.492;8.474;2023-03-01T13:29:47;100935.56;;;8.17;38.43
6144;BME280;3103;49.492;8.474;2023-03-01T13:32:26;100938.81;;;8.32;39.81
6144;BME280;3103;49.492;8.474;2023-03-01T13:37:41;100933.88;;;8.36;38.72
6144;BME280;3103;49.492;8.474;2023-03-01T13:42:51;100930.53;;;8.47;38.51
6144;BME280;3103;49.492;8.474;2023-03-01T13:45:42;100918.94;;;8.60;40.25
6144;BME280;3103;49.492;8.474;2023-03-01T13:48:18;100919.69;;;8.67;39.13
6144;BME280;3103;49.492;8.474;2023-03-01T13:50:52;100913.13;;;8.63;39.29
6144;BME280;3103;49.492;8.474;2023-03-01T13:53:25;100914.34;;;8.67;38.55
6144;BME280;3103;49.492;8.474;2023-03-01T13:56:00;100912.41;;;8.81;39.41
6144;BME280;3103;49.492;8.474;2023-03-01T13:58:30;100910.72;;;8.86;37.83
6144;BME280;3103;49.492;8.474;2023-03-01T14:03:31;100897.66;;;8.97;38.00
6144;BME280;3103;49.492;8.474;2023-03-01T14:06:03;100895.44;;;9.18;37.82
6144;BME280;3103;49.492;8.474;2023-03-01T14:08:41;100900.81;;;9.18;37.52
6144;BME280;3103;49.492;8.474;2023-03-01T14:16:58;100895.81;;;9.22;37.41
6144;BME280;3103;49.492;8.474;2023-03-01T14:19:29;100893.91;;;9.29;36.65
6144;BME280;3103;49.492;8.474;2023-03-01T14:22:21;100884.25;;;9.46;36.67
6144;BME280;3103;49.492;8.474;2023-03-01T14:24:56;100891.13;;;9.61;37.55
6144;BME280;3103;49.492;8.474;2023-03-01T14:27:34;100886.38;;;9.63;36.19
6144;BME280;3103;49.492;8.474;2023-03-01T14:30:09;100884.50;;;9.81;37.61
6144;BME280;3103;49.492;8.474;2023-03-01T14:32:39;100874.22;;;9.97;37.04
6144;BME280;3103;49.492;8.474;2023-03-01T14:35:29;100876.44;;;9.81;36.84
6144;BME280;3103;49.492;8.474;2023-03-01T14:37:57;100879.50;;;9.85;36.51
6144;BME280;3103;49.492;8.474;2023-03-01T14:40:32;100868.41;;;10.00;36.57
6144;BME280;3103;49.492;8.474;2023-03-01T14:43:02;100864.44;;;10.02;36.98
6144;BME280;3103;49.492;8.474;2023-03-01T14:45:35;100863.41;;;10.03;36.79
6144;BME280;3103;49.492;8.474;2023-03-01T14:48:04;100865.72;;;10.00;36.44
6144;BME280;3103;49.492;8.474;2023-03-01T14:50:34;100857.94;;;10.10;35.80
6144;BME280;3103;49.492;8.474;2023-03-01T14:53:04;100873.81;;;10.11;36.48
6144;BME280;3103;49.492;8.474;2023-03-01T14:55:35;100874.97;;;10.22;35.25
6144;BME280;3103;49.492;8.474;2023-03-01T14:58:05;100871.53;;;10.15;35.94
6144;BME280;3103;49.492;8.474;2023-03-01T15:00:34;100870.84;;;10.20;35.54
6144;BME280;3103;49.492;8.474;2023-03-01T15:03:12;100866.03;;;10.28;35.28
6144;BME280;3103;49.492;8.474;2023-03-01T15:05:42;100862.78;;;10.38;35.19
6144;BME280;3103;49.492;8.474;2023-03-01T15:08:19;100872.47;;;10.39;35.49